Time;durP1;ratioP1;P1;durP2;ratioP2;P2;SDS_P1;SDS_P2;PMS_P1;PMS_P2;Temp;Humidity;BMP_temperature;BMP_pressure;BME280_temperature;BME280_humidity;BME280_pressure;Samples;Min_cycle;Max_cycle;Signal;HPM_P1;HPM_P2
2023/08/03 00:00:11;;;;;;;5.77;1.70;;;;;;;17.72;100.00;96720.59;5053553;28;20232;-74
2023/08/03 00:02:37;;;;;;;7.13;1.80;;;;;;;17.67;100.00;96726.06;5053747;28;20209;-74
2023/08/03 00:05:04;;;;;;;4.10;1.60;;;;;;;17.63;100.00;96732.31;5052811;28;20209;-75
2023/08/03 00:07:32;;;;;;;4.10;1.70;;;;;;;17.62;100.00;96741.47;5053217;28;20686;-75
2023/08/03 00:09:59;;;;;;;3.93;1.50;;;;;;;17.60;100.00;96736.38;5053210;28;20229;-75
2023/08/03 00:12:26;;;;;;;3.93;1.80;;;;;;;17.60;100.00;96736.38;5053459;28;20221;-75
2023/08/03 00:14:53;;;;;;;5.90;1.80;;;;;;;17.53;100.00;96735.16;5053193;28;20219;-74
2023/08/03 00:17:19;;;;;;;3.77;1.57;;;;;;;17.50;100.00;96749.97;5053579;28;20205;-75
2023/08/03 00:19:45;;;;;;;7.40;2.20;;;;;;;17.49;100.00;96744.91;5053410;28;20236;-75
2023/08/03 00:22:12;;;;;;;9.07;2.00;;;;;;;17.66;100.00;96743.28;5053397;28;20201;-75
2023/08/03 00:24:38;;;;;;;6.07;1.80;;;;;;;17.70;100.00;96740.78;5053418;28;20227;-75
2023/08/03 00:27:05;;;;;;;6.43;1.80;;;;;;;17.71;100.00;96740.50;5053209;28;20407;-75
2023/08/03 00:29:31;;;;;;;3.30;1.70;;;;;;;17.69;100.00;96731.13;5053062;28;20229;-75
2023/08/03 00:32:00;;;;;;;6.13;2.00;;;;;;;17.64;100.00;96737.38;5053880;28;20205;-75
2023/08/03 00:34:27;;;;;;;4.40;1.73;;;;;;;17.63;100.00;96722.34;5053435;28;20208;-74
2023/08/03 00:36:53;;;;;;;6.23;2.00;;;;;;;17.62;100.00;96725.34;5053329;28;20209;-75
2023/08/03 00:39:19;;;;;;;6.07;1.80;;;;;;;17.55;100.00;96731.09;5053621;28;20228;-75
2023/08/03 00:41:46;;;;;;;8.67;2.30;;;;;;;17.37;100.00;96729.22;5053221;28;20201;-74
2023/08/03 00:44:12;;;;;;;8.33;2.40;;;;;;;17.43;100.00;96730.78;5053196;28;20201;-75
2023/08/03 00:46:39;;;;;;;7.93;1.73;;;;;;;17.65;100.00;96738.97;5053302;28;20202;-74
2023/08/03 00:49:05;;;;;;;3.37;1.50;;;;;;;17.51;100.00;96735.44;5052812;28;20735;-74
2023/08/03 00:51:32;;;;;;;6.90;2.00;;;;;;;17.51;100.00;96740.81;5053141;28;20212;-74
2023/08/03 00:53:58;;;;;;;8.20;2.00;;;;;;;17.49;100.00;96732.28;5052744;28;20229;-74
2023/08/03 00:56:24;;;;;;;8.40;1.83;;;;;;;17.53;100.00;96727.91;5053123;28;20205;-74
2023/08/03 00:58:51;;;;;;;7.47;1.80;;;;;;;17.67;100.00;96718.00;5052709;28;20229;-74
2023/08/03 01:01:17;;;;;;;8.27;2.10;;;;;;;17.72;100.00;96731.34;5053039;28;20205;-74
2023/08/03 01:03:45;;;;;;;5.50;2.00;;;;;;;17.76;100.00;96726.16;5053039;28;20201;-74
2023/08/03 01:06:11;;;;;;;5.63;1.90;;;;;;;17.77;100.00;96725.88;5053036;28;20216;-74
2023/08/03 01:08:37;;;;;;;5.63;1.93;;;;;;;17.69;100.00;96733.81;5052723;28;20695;-74
2023/08/03 01:11:04;;;;;;;8.07;1.87;;;;;;;17.71;100.00;96735.13;5052918;28;20209;-74
2023/08/03 01:13:30;;;;;;;8.33;2.37;;;;;;;17.80;100.00;96737.91;5052950;28;20222;-74
2023/08/03 01:15:58;;;;;;;7.20;2.13;;;;;;;17.83;100.00;96731.97;5052992;28;20206;-74
2023/08/03 01:18:24;;;;;;;6.73;2.00;;;;;;;17.96;100.00;96725.81;5056120;28;20221;-74
2023/08/03 01:20:51;;;;;;;5.57;1.80;;;;;;;18.08;100.00;96718.84;5056442;28;20572;-74
2023/08/03 01:23:18;;;;;;;4.90;1.70;;;;;;;17.98;100.00;96727.09;5056436;28;20201;-74
2023/08/03 01:25:44;;;;;;;4.20;1.93;;;;;;;17.91;100.00;96728.59;5056107;28;20571;-74
2023/08/03 01:28:10;;;;;;;6.13;2.17;;;;;;;18.02;100.00;96725.41;5055968;28;20213;-74
2023/08/03 01:30:37;;;;;;;7.03;2.10;;;;;;;18.20;100.00;96726.41;5056255;28;20201;-74
2023/08/03 01:33:03;;;;;;;6.10;2.07;;;;;;;18.04;100.00;96711.66;5056078;28;20225;-74
2023/08/03 01:35:30;;;;;;;6.73;2.17;;;;;;;18.10;100.00;96710.47;5056224;28;20212;-74
2023/08/03 01:37:56;;;;;;;5.90;1.70;;;;;;;18.07;100.00;96711.06;5056107;28;20212;-74
2023/08/03 01:40:23;;;;;;;6.33;2.33;;;;;;;17.93;100.00;96703.00;5056321;28;20231;-74
2023/08/03 01:42:49;;;;;;;5.93;2.03;;;;;;;18.05;100.00;96700.59;5056014;28;20201;-74
2023/08/03 01:45:15;;;;;;;7.17;2.17;;;;;;;18.00;100.00;96713.38;5056368;28;20201;-78
2023/08/03 01:47:42;;;;;;;7.50;2.27;;;;;;;17.99;100.00;96703.69;5057208;28;20202;-78
2023/08/03 01:50:08;;;;;;;9.70;1.97;;;;;;;17.94;100.00;96707.28;5057771;28;20227;-79
2023/08/03 01:52:34;;;;;;;7.03;2.07;;;;;;;17.97;100.00;96712.03;5057185;28;20232;-79
2023/08/03 01:55:01;;;;;;;5.10;1.60;;;;;;;17.87;100.00;96714.16;5058675;28;20211;-78
2023/08/03 01:57:27;;;;;;;4.30;1.90;;;;;;;17.96;100.00;96718.50;5058200;28;20205;-79
2023/08/03 01:59:53;;;;;;;4.33;1.80;;;;;;;17.95;100.00;96727.69;5058050;28;20232;-79
2023/08/03 02:02:20;;;;;;;7.30;1.70;;;;;;;18.04;100.00;96728.59;5057685;28;20205;-78
2023/08/03 02:04:46;;;;;;;5.37;1.80;;;;;;;18.01;100.00;96739.94;5058200;28;20201;-78
2023/08/03 02:07:18;;;;;;;5.13;1.80;;;;;;;17.90;100.00;96738.53;5057752;28;20575;-79
2023/08/03 02:09:45;;;;;;;6.37;1.87;;;;;;;17.79;100.00;96736.31;5057712;28;20229;-78
2023/08/03 02:12:11;;;;;;;6.53;1.97;;;;;;;17.83;100.00;96743.50;5057798;28;20211;-78
2023/08/03 02:14:37;;;;;;;3.93;1.43;;;;;;;17.85;100.00;96740.50;5058227;28;20660;-79
2023/08/03 02:17:04;;;;;;;7.17;1.80;;;;;;;17.87;100.00;96757.16;5057612;28;20209;-78
2023/08/03 02:19:30;;;;;;;4.57;1.87;;;;;;;17.74;100.00;96756.00;5058308;28;20224;-79
2023/08/03 02:21:56;;;;;;;4.87;1.80;;;;;;;17.68;100.00;96759.09;5058230;28;20549;-79
2023/08/03 02:24:23;;;;;;;5.43;1.70;;;;;;;17.59;100.00;96758.16;5055975;28;20569;-74
2023/08/03 02:26:49;;;;;;;5.30;1.60;;;;;;;17.78;100.00;96759.72;5054658;28;20676;-74
2023/08/03 02:29:15;;;;;;;4.00;1.40;;;;;;;17.75;100.00;96765.69;5054055;28;20594;-74
2023/08/03 02:31:42;;;;;;;6.43;1.83;;;;;;;17.70;100.00;96773.84;5054789;28;20673;-74
2023/08/03 02:34:08;;;;;;;6.33;1.90;;;;;;;17.70;100.00;96765.78;5054571;28;20726;-74
2023/08/03 02:36:35;;;;;;;5.80;1.77;;;;;;;17.63;100.00;96777.97;5054938;28;20205;-74
2023/08/03 02:39:01;;;;;;;4.87;1.70;;;;;;;17.69;100.00;96774.91;5054905;28;20235;-74
2023/08/03 02:41:27;;;;;;;5.13;1.80;;;;;;;17.64;100.00;96771.53;5054895;28;20201;-74
2023/08/03 02:43:54;;;;;;;6.17;1.60;;;;;;;17.63;100.00;96773.41;5054816;28;20205;-74
2023/08/03 02:46:21;;;;;;;6.63;1.80;;;;;;;17.64;100.00;96775.00;5054781;28;20205;-74
2023/08/03 02:48:47;;;;;;;5.43;1.47;;;;;;;17.58;100.00;96778.88;5054752;28;20225;-74
2023/08/03 02:51:13;;;;;;;6.70;1.70;;;;;;;17.50;100.00;96762.66;5054723;28;20205;-74
2023/08/03 02:53:40;;;;;;;8.10;1.87;;;;;;;17.46;100.00;96765.09;5055702;28;20229;-74
2023/08/03 02:56:06;;;;;;;7.57;1.67;;;;;;;17.36;100.00;96765.22;5054617;28;20209;-74
2023/08/03 02:58:32;;;;;;;5.57;1.53;;;;;;;17.29;100.00;96751.34;5054326;28;20232;-74
2023/08/03 03:01:00;;;;;;;2.63;1.60;;;;;;;17.43;100.00;96746.91;5054386;28;20205;-74
2023/08/03 03:03:26;;;;;;;4.03;1.77;;;;;;;17.36;100.00;96754.50;5053966;28;20217;-74
2023/08/03 03:05:53;;;;;;;6.87;2.07;;;;;;;17.27;100.00;96764.31;5054426;28;20220;-74
2023/08/03 03:08:19;;;;;;;6.87;2.10;;;;;;;17.27;100.00;96764.31;5054358;28;20290;-74
2023/08/03 03:10:46;;;;;;;7.20;1.90;;;;;;;17.16;100.00;96754.00;5054236;28;20208;-74
2023/08/03 03:13:12;;;;;;;5.20;1.67;;;;;;;17.22;100.00;96763.56;5054175;28;20275;-74
2023/08/03 03:15:38;;;;;;;6.00;1.77;;;;;;;17.16;100.00;96770.13;5054262;28;20205;-74
2023/08/03 03:18:05;;;;;;;4.57;1.57;;;;;;;17.16;100.00;96776.31;5053773;28;20584;-74
2023/08/03 03:20:31;;;;;;;6.00;1.90;;;;;;;17.31;100.00;96773.38;5053885;28;20699;-74
2023/08/03 03:22:58;;;;;;;7.57;2.13;;;;;;;17.33;100.00;96775.78;5054008;28;20207;-74
2023/08/03 03:25:24;;;;;;;8.27;1.93;;;;;;;17.23;100.00;96776.72;5053957;28;20227;-74
2023/08/03 03:27:50;;;;;;;4.90;1.50;;;;;;;17.17;100.00;96769.84;5053630;28;20213;-74
2023/08/03 03:30:17;;;;;;;5.70;1.93;;;;;;;17.14;100.00;96762.34;5053828;28;20255;-74
2023/08/03 03:32:45;;;;;;;6.70;1.83;;;;;;;17.10;100.00;96772.06;5053435;28;20742;-74
2023/08/03 03:35:12;;;;;;;5.13;1.87;;;;;;;17.01;100.00;96765.75;5053739;28;20205;-74
2023/08/03 03:37:38;;;;;;;7.13;2.40;;;;;;;17.09;100.00;96765.13;5053396;28;20209;-74
2023/08/03 03:40:05;;;;;;;7.53;1.90;;;;;;;17.07;100.00;96767.31;5053192;28;20235;-74
2023/08/03 03:42:32;;;;;;;5.70;2.13;;;;;;;17.14;100.00;96754.28;5053429;28;20232;-74
2023/08/03 03:44:58;;;;;;;6.37;1.73;;;;;;;17.05;100.00;96744.53;5053396;28;20200;-74
2023/08/03 03:47:24;;;;;;;5.40;1.90;;;;;;;17.00;100.00;96756.13;5053509;28;20205;-74
2023/08/03 03:49:51;;;;;;;6.80;1.90;;;;;;;16.95;100.00;96763.44;5053398;28;20225;-74
2023/08/03 03:52:17;;;;;;;7.93;1.90;;;;;;;17.07;100.00;96750.38;5053308;28;20686;-74
2023/08/03 03:54:43;;;;;;;7.50;2.03;;;;;;;16.98;100.00;96757.50;5053498;28;20235;-74
2023/08/03 03:57:10;;;;;;;5.83;1.97;;;;;;;17.03;100.00;96766.28;5053413;28;20201;-74
2023/08/03 03:59:36;;;;;;;8.93;2.37;;;;;;;16.98;100.00;96773.59;5053279;28;20221;-74
2023/08/03 04:02:02;;;;;;;5.23;1.90;;;;;;;17.04;100.00;96770.56;5053138;28;20204;-74
2023/08/03 04:04:29;;;;;;;5.50;1.97;;;;;;;16.98;100.00;96777.09;5053230;28;20211;-73
2023/08/03 04:06:55;;;;;;;5.67;2.00;;;;;;;17.01;100.00;96773.81;5053060;28;20209;-74
2023/08/03 04:09:22;;;;;;;5.27;1.90;;;;;;;16.93;100.00;96768.31;5060625;28;20714;-79
2023/08/03 04:11:48;;;;;;;9.07;2.17;;;;;;;16.95;100.00;96761.56;5075262;28;20196;-78
2023/08/03 04:14:14;;;;;;;9.00;2.03;;;;;;;16.93;100.00;96776.34;5076175;28;20220;-79
2023/08/03 04:16:41;;;;;;;4.13;1.80;;;;;;;16.93;100.00;96787.09;5076283;28;20208;-78
2023/08/03 04:19:07;;;;;;;7.97;1.83;;;;;;;16.93;100.00;96795.97;5073973;28;20726;-78
2023/08/03 04:21:33;;;;;;;5.10;1.50;;;;;;;16.94;100.00;96797.56;5070591;28;20198;-78
2023/08/03 04:24:00;;;;;;;6.10;1.77;;;;;;;17.05;100.00;96822.38;5056391;28;20227;-79
2023/08/03 04:26:26;;;;;;;5.10;1.73;;;;;;;16.99;100.00;96821.66;5056190;28;20223;-79
2023/08/03 04:28:53;;;;;;;4.50;1.50;;;;;;;17.05;100.00;96819.69;5055804;28;20221;-79
2023/08/03 04:31:19;;;;;;;7.10;1.63;;;;;;;17.05;100.00;96827.75;5056773;28;20201;-78
2023/08/03 04:33:46;;;;;;;4.47;1.50;;;;;;;17.12;100.00;96844.28;5069262;28;20338;-79
2023/08/03 04:36:12;;;;;;;5.27;1.00;;;;;;;17.01;100.00;96832.09;5072787;28;20200;-79
2023/08/03 04:38:38;;;;;;;3.20;1.33;;;;;;;17.02;100.00;96842.56;5072021;28;20220;-79
2023/08/03 04:41:05;;;;;;;5.80;1.33;;;;;;;16.98;100.00;96843.41;5062319;28;20696;-78
2023/08/03 04:43:32;;;;;;;6.27;1.50;;;;;;;16.99;100.00;96853.06;5061912;28;20203;-78
2023/08/03 04:45:58;;;;;;;5.10;1.27;;;;;;;16.98;99.18;96857.63;5056200;28;20233;-78
2023/08/03 04:48:25;;;;;;;6.20;1.13;;;;;;;16.94;100.00;96870.03;5054670;28;20669;-79
2023/08/03 04:50:52;;;;;;;2.87;1.00;;;;;;;16.92;100.00;96877.56;5054562;28;20205;-79
2023/08/03 04:53:18;;;;;;;4.67;1.53;;;;;;;17.00;98.98;96874.25;5058794;28;20217;-79
2023/08/03 04:55:45;;;;;;;2.97;1.30;;;;;;;17.03;100.00;96889.78;5058040;28;20205;-79
2023/08/03 04:58:11;;;;;;;3.80;1.20;;;;;;;17.12;96.25;96893.44;5059364;28;20232;-79
2023/08/03 05:00:37;;;;;;;2.33;1.07;;;;;;;17.08;99.52;96886.22;5058767;28;20201;-79
2023/08/03 05:03:04;;;;;;;3.77;1.10;;;;;;;17.11;97.07;96897.22;5059574;28;20209;-79
2023/08/03 05:05:30;;;;;;;2.40;1.00;;;;;;;17.23;96.32;96905.63;5059258;28;20209;-79
2023/08/03 05:07:57;;;;;;;3.67;0.90;;;;;;;17.16;97.18;96904.41;5059550;28;20211;-79
2023/08/03 05:10:23;;;;;;;3.13;1.03;;;;;;;17.17;97.44;96909.47;5058921;28;20201;-79
2023/08/03 05:12:49;;;;;;;5.07;0.97;;;;;;;17.07;99.98;96900.75;5059118;28;20228;-75
2023/08/03 05:15:16;;;;;;;2.20;1.10;;;;;;;17.04;97.32;96910.19;5056140;28;20715;-74
2023/08/03 05:17:42;;;;;;;3.70;1.20;;;;;;;16.94;100.00;96913.00;5056308;28;20209;-74
2023/08/03 05:20:09;;;;;;;2.30;1.10;;;;;;;16.92;100.00;96925.09;5056142;28;20221;-74
2023/08/03 05:22:35;;;;;;;2.13;1.30;;;;;;;16.95;100.00;96917.28;5056195;28;20209;-74
2023/08/03 05:25:02;;;;;;;5.37;1.07;;;;;;;17.00;100.00;96922.56;5055951;28;20201;-74
2023/08/03 05:27:28;;;;;;;6.33;1.13;;;;;;;17.00;100.00;96927.13;5055519;28;20213;-74
2023/08/03 05:29:55;;;;;;;1.67;0.80;;;;;;;17.07;100.00;96930.28;5056928;28;20237;-78
2023/08/03 05:32:25;;;;;;;3.30;1.10;;;;;;;17.12;99.63;96928.34;5060011;28;20202;-79
2023/08/03 05:34:52;;;;;;;2.93;0.90;;;;;;;17.06;100.00;96932.16;5059861;28;20217;-79
2023/08/03 05:37:18;;;;;;;3.70;0.83;;;;;;;17.02;100.00;96949.16;5059698;28;20201;-79
2023/08/03 05:39:45;;;;;;;4.37;1.20;;;;;;;17.04;100.00;96949.66;5058893;28;20225;-79
2023/08/03 05:42:15;;;;;;;4.03;1.13;;;;;;;17.05;100.00;96957.41;5059466;28;20216;-79
2023/08/03 05:44:42;;;;;;;1.70;0.77;;;;;;;17.07;100.00;96957.94;5060291;28;20202;-79
2023/08/03 05:47:10;;;;;;;2.73;0.87;;;;;;;17.02;100.00;96957.19;5058943;28;20268;-79
2023/08/03 05:49:38;;;;;;;2.00;0.80;;;;;;;17.04;100.00;96958.50;5058851;28;20704;-79
2023/08/03 05:52:06;;;;;;;3.47;1.10;;;;;;;17.05;100.00;96964.69;5058386;28;20213;-79
2023/08/03 05:54:32;;;;;;;3.83;1.00;;;;;;;17.06;100.00;96964.38;5057771;28;20271;-78
2023/08/03 05:56:59;;;;;;;4.13;1.00;;;;;;;17.05;100.00;96965.47;5056136;28;20231;-74
2023/08/03 05:59:25;;;;;;;4.73;0.90;;;;;;;17.09;100.00;96966.50;5055225;28;20300;-74
2023/08/03 06:01:53;;;;;;;1.57;0.87;;;;;;;17.10;100.00;96960.03;5054772;28;20692;-74
2023/08/03 06:04:19;;;;;;;2.93;1.00;;;;;;;17.10;100.00;96959.25;5053789;28;20686;-74
2023/08/03 06:06:47;;;;;;;1.77;0.87;;;;;;;17.13;100.00;96964.84;5055282;28;20201;-74
2023/08/03 06:09:15;;;;;;;1.23;0.77;;;;;;;17.11;100.00;96963.53;5055549;28;20235;-73
2023/08/03 06:11:42;;;;;;;2.73;0.97;;;;;;;17.10;100.00;96968.09;5055787;28;20212;-74
2023/08/03 06:14:13;;;;;;;1.53;0.80;;;;;;;17.14;100.00;96968.34;5054776;28;20231;-74
2023/08/03 06:16:40;;;;;;;2.00;1.00;;;;;;;17.10;100.00;96976.16;5054811;28;20185;-74
2023/08/03 06:19:10;;;;;;;1.53;0.90;;;;;;;17.09;100.00;96979.94;5054901;28;20319;-74
2023/08/03 06:21:36;;;;;;;3.43;1.03;;;;;;;17.10;100.00;96980.75;5055190;28;20209;-74
2023/08/03 06:24:03;;;;;;;1.93;0.93;;;;;;;17.07;100.00;96976.75;5054161;28;20572;-74
2023/08/03 06:26:33;;;;;;;3.03;1.03;;;;;;;17.16;100.00;96980.41;5054323;28;20271;-74
2023/08/03 06:29:01;;;;;;;2.30;0.90;;;;;;;17.13;100.00;96986.34;5054397;28;20701;-74
2023/08/03 06:31:32;;;;;;;1.63;0.93;;;;;;;17.16;100.00;96971.53;5054471;28;20664;-74
2023/08/03 06:33:59;;;;;;;2.13;1.03;;;;;;;17.23;100.00;96977.38;5054577;28;20278;-74
2023/08/03 06:36:26;;;;;;;6.00;1.10;;;;;;;17.38;100.00;96982.56;5054587;28;20218;-74
2023/08/03 06:38:53;;;;;;;2.57;1.13;;;;;;;17.54;100.00;96982.09;5054504;28;20229;-74
2023/08/03 06:41:19;;;;;;;3.13;1.13;;;;;;;17.69;100.00;96987.25;5054443;28;20665;-74
2023/08/03 06:44:19;;;;;;;3.10;1.00;;;;;;;17.94;97.05;96986.13;5054392;28;20323;-73
2023/08/03 06:46:46;;;;;;;2.00;1.20;;;;;;;18.08;97.01;96977.03;5052471;28;20185;-74
2023/08/03 06:49:12;;;;;;;1.70;0.93;;;;;;;18.23;93.79;96989.47;5053280;28;20282;-74
2023/08/03 06:51:39;;;;;;;2.63;1.17;;;;;;;18.23;94.04;96995.63;5053755;28;20205;-74
2023/08/03 06:54:06;;;;;;;2.13;1.00;;;;;;;18.42;90.93;96995.63;5053542;28;20232;-74
2023/08/03 06:56:32;;;;;;;3.10;1.13;;;;;;;18.43;85.53;96991.84;5053676;28;20201;-74
2023/08/03 06:58:58;;;;;;;2.37;0.93;;;;;;;18.46;86.44;97005.50;5053748;28;20233;-74
2023/08/03 07:01:25;;;;;;;3.60;1.17;;;;;;;18.49;85.76;96985.28;5054438;28;20291;-74
2023/08/03 07:03:50;;;;;;;3.30;1.23;;;;;;;18.57;82.92;97011.53;5054310;28;20201;-74
2023/08/03 07:06:17;;;;;;;3.73;1.10;;;;;;;18.51;83.17;97010.78;5053978;28;20288;-74
2023/08/03 07:08:43;;;;;;;2.73;1.00;;;;;;;18.58;82.63;97023.88;5054010;28;20316;-74
2023/08/03 07:11:10;;;;;;;2.83;1.10;;;;;;;18.55;81.66;97013.72;5053882;28;20767;-74
2023/08/03 07:13:36;;;;;;;3.93;1.17;;;;;;;18.68;84.09;97016.44;5053507;28;20216;-74
2023/08/03 07:16:09;;;;;;;3.13;1.03;;;;;;;18.78;81.70;97013.56;5053336;28;20641;-74
2023/08/03 07:18:36;;;;;;;2.93;0.80;;;;;;;18.91;83.07;97012.03;5053545;28;20735;-74
2023/08/03 07:21:06;;;;;;;2.10;1.00;;;;;;;19.03;81.11;97007.75;5053858;28;20211;-74
2023/08/03 07:23:33;;;;;;;2.23;1.03;;;;;;;19.02;78.75;97018.81;5053824;28;20216;-74
2023/08/03 07:25:59;;;;;;;1.83;1.20;;;;;;;19.07;80.43;97021.41;5052735;28;20207;-74
2023/08/03 07:28:26;;;;;;;2.60;1.00;;;;;;;18.96;80.13;97026.16;5053229;28;20269;-74
2023/08/03 07:30:52;;;;;;;1.80;0.97;;;;;;;18.97;82.98;97033.19;5053287;28;20205;-74
2023/08/03 07:33:18;;;;;;;2.43;1.00;;;;;;;18.70;79.31;97037.69;5053411;28;20212;-74
2023/08/03 07:35:45;;;;;;;3.13;1.20;;;;;;;18.69;82.86;97041.47;5053253;28;20229;-74
2023/08/03 07:38:11;;;;;;;2.50;1.10;;;;;;;18.92;78.52;97044.00;5052880;28;20216;-74
2023/08/03 07:40:38;;;;;;;1.47;0.90;;;;;;;18.93;79.65;97042.13;5053363;28;20643;-74
2023/08/03 07:43:05;;;;;;;1.60;1.07;;;;;;;19.00;81.13;97040.66;5053318;28;20714;-74
2023/08/03 07:45:31;;;;;;;2.40;1.10;;;;;;;19.10;75.27;97028.91;5053402;28;20227;-74
2023/08/03 07:47:58;;;;;;;4.67;1.20;;;;;;;19.11;76.75;97044.78;5053491;28;20288;-74
2023/08/03 07:50:24;;;;;;;1.97;0.83;;;;;;;19.07;77.99;97043.78;5053315;28;20205;-74
2023/08/03 07:52:50;;;;;;;1.87;0.90;;;;;;;18.97;76.50;97054.72;5053169;28;20216;-74
2023/08/03 07:55:17;;;;;;;1.10;0.80;;;;;;;18.96;77.83;97057.72;5053020;28;20583;-74
2023/08/03 07:57:43;;;;;;;1.57;0.90;;;;;;;19.03;78.20;97050.03;5053251;28;20231;-74
2023/08/03 08:00:10;;;;;;;2.90;1.20;;;;;;;19.27;78.06;97050.72;5053093;28;20708;-74
2023/08/03 08:02:36;;;;;;;3.17;1.27;;;;;;;19.52;75.69;97050.22;5053314;28;20210;-74
2023/08/03 08:05:03;;;;;;;2.47;1.00;;;;;;;19.65;76.09;97062.91;5053008;28;20676;-74
2023/08/03 08:07:30;;;;;;;2.27;0.80;;;;;;;19.58;76.25;97057.91;5053173;28;20212;-74
2023/08/03 08:09:56;;;;;;;3.63;1.10;;;;;;;19.51;76.00;97060.19;5053085;28;20225;-74
2023/08/03 08:12:22;;;;;;;3.27;0.90;;;;;;;19.55;78.88;97073.88;5053304;28;20205;-74
2023/08/03 08:14:49;;;;;;;2.80;1.30;;;;;;;19.42;76.87;97066.59;5053224;28;20227;-74
2023/08/03 08:17:15;;;;;;;3.80;1.33;;;;;;;19.46;76.36;97070.28;5052984;28;20746;-74
2023/08/03 08:19:42;;;;;;;2.73;1.30;;;;;;;19.39;75.59;97068.00;5052796;28;20726;-74
2023/08/03 08:22:09;;;;;;;3.60;1.10;;;;;;;19.41;77.01;97065.78;5053218;28;20215;-74
2023/08/03 08:24:35;;;;;;;1.90;0.90;;;;;;;19.44;76.66;97069.78;5053024;28;20205;-74
2023/08/03 08:27:02;;;;;;;2.63;1.10;;;;;;;19.57;79.91;97062.81;5054614;28;20216;-74
2023/08/03 08:29:28;;;;;;;1.57;1.03;;;;;;;19.66;79.71;97061.00;5057071;28;20229;-75
2023/08/03 08:31:55;;;;;;;2.50;1.00;;;;;;;19.79;76.16;97066.38;5057068;28;20212;-74
2023/08/03 08:34:21;;;;;;;1.90;1.00;;;;;;;20.01;77.38;97079.13;5057045;28;20229;-74
2023/08/03 08:36:51;;;;;;;2.43;1.03;;;;;;;19.94;75.82;97067.97;5057029;28;20236;-74
2023/08/03 08:39:17;;;;;;;3.07;1.00;;;;;;;19.98;74.52;97069.75;5056821;28;20228;-74
2023/08/03 08:41:44;;;;;;;2.23;1.03;;;;;;;19.85;75.45;97070.56;5056923;28;20213;-74
2023/08/03 08:44:14;;;;;;;2.10;0.80;;;;;;;19.94;75.80;97057.19;5056838;28;20231;-74
2023/08/03 08:46:44;;;;;;;1.87;0.80;;;;;;;20.04;74.62;97073.16;5056790;28;20208;-74
2023/08/03 08:49:11;;;;;;;2.60;1.00;;;;;;;20.08;75.24;97071.44;5056853;28;20221;-74
2023/08/03 08:51:40;;;;;;;3.10;1.00;;;;;;;19.81;74.48;97076.88;5057609;28;20201;-74
2023/08/03 08:54:07;;;;;;;1.20;0.67;;;;;;;19.90;75.45;97075.06;5056409;28;20209;-74
2023/08/03 08:56:33;;;;;;;2.10;0.90;;;;;;;19.98;77.08;97058.19;5056245;28;20205;-74
2023/08/03 08:59:01;;;;;;;2.87;0.80;;;;;;;19.95;75.79;97077.66;5056387;28;20558;-74
2023/08/03 09:01:27;;;;;;;2.77;1.07;;;;;;;20.00;74.38;97072.97;5056101;28;20567;-74
2023/08/03 09:03:56;;;;;;;1.00;0.90;;;;;;;20.04;74.15;97083.94;5056376;28;20208;-74
2023/08/03 09:06:23;;;;;;;1.17;0.60;;;;;;;20.41;74.20;97083.69;5056358;28;20275;-74
2023/08/03 09:08:51;;;;;;;2.03;0.80;;;;;;;20.31;73.58;97089.31;5056333;28;20312;-74
2023/08/03 09:11:18;;;;;;;2.30;1.00;;;;;;;20.36;73.21;97075.69;5056720;28;20201;-74
2023/08/03 09:13:48;;;;;;;1.60;0.80;;;;;;;20.30;74.46;97088.50;5056273;28;20209;-74
2023/08/03 09:16:26;;;;;;;1.33;0.70;;;;;;;20.33;72.64;97095.19;5056240;28;20275;-74
2023/08/03 09:18:53;;;;;;;1.90;0.80;;;;;;;20.25;74.49;97099.41;5056014;28;20229;-74
2023/08/03 09:21:20;;;;;;;2.63;0.90;;;;;;;20.25;72.83;97095.94;5056080;28;20292;-74
2023/08/03 09:23:48;;;;;;;1.50;0.80;;;;;;;20.34;72.57;97100.28;5055790;28;20635;-74
2023/08/03 09:26:15;;;;;;;2.27;0.87;;;;;;;20.37;72.17;97104.28;5056140;28;20207;-74
2023/08/03 09:28:43;;;;;;;1.30;0.73;;;;;;;20.58;73.04;97095.41;5055587;28;20565;-74
2023/08/03 09:31:11;;;;;;;2.00;0.90;;;;;;;20.99;75.10;97092.59;5056086;28;20288;-74
2023/08/03 09:33:38;;;;;;;2.07;0.90;;;;;;;21.10;71.08;97107.44;5055815;28;20213;-74
2023/08/03 09:36:14;;;;;;;2.50;0.87;;;;;;;20.97;69.96;97094.78;5055852;28;20304;-74
2023/08/03 09:38:41;;;;;;;2.63;0.60;;;;;;;21.04;68.17;97100.56;5055048;28;20308;-74
2023/08/03 09:41:08;;;;;;;1.57;0.83;;;;;;;21.25;68.67;97115.16;5056473;28;20201;-74
2023/08/03 09:43:35;;;;;;;2.57;0.97;;;;;;;21.13;69.63;97104.13;5055665;28;20236;-74
2023/08/03 09:46:02;;;;;;;1.40;0.83;;;;;;;21.21;70.16;97109.56;5055403;28;20201;-74
2023/08/03 09:48:29;;;;;;;2.20;0.70;;;;;;;20.90;72.02;97116.84;5055635;28;20316;-74
2023/08/03 09:50:57;;;;;;;1.83;0.83;;;;;;;20.87;72.20;97120.13;5055398;28;20201;-74
2023/08/03 09:53:31;;;;;;;2.63;0.80;;;;;;;20.96;72.78;97129.13;5055295;28;20213;-74
2023/08/03 09:56:01;;;;;;;1.23;0.60;;;;;;;20.99;72.23;97130.41;5055020;28;20693;-74
2023/08/03 09:58:33;;;;;;;0.97;0.87;;;;;;;20.91;73.01;97113.03;5055168;28;20229;-74
2023/08/03 10:01:04;;;;;;;2.13;0.83;;;;;;;20.79;71.41;97128.19;5055397;28;20196;-74
2023/08/03 10:03:32;;;;;;;1.67;0.70;;;;;;;20.89;72.17;97128.72;5055332;28;20204;-74
2023/08/03 10:06:12;;;;;;;2.27;0.67;;;;;;;20.83;72.20;97143.44;5055084;28;20201;-74
2023/08/03 10:08:48;;;;;;;1.47;0.87;;;;;;;20.81;71.77;97150.28;5054785;28;20225;-74
2023/08/03 10:11:15;;;;;;;2.00;0.70;;;;;;;20.58;71.02;97138.63;5056138;28;20526;-74
2023/08/03 10:13:46;;;;;;;4.57;0.77;;;;;;;20.49;72.90;97150.47;5055306;28;20209;-74
2023/08/03 10:16:18;;;;;;;1.27;0.60;;;;;;;20.49;73.24;97153.16;5055140;28;20232;-74
2023/08/03 10:18:46;;;;;;;1.20;0.90;;;;;;;20.42;73.70;97152.75;5054026;28;20235;-74
2023/08/03 10:21:12;;;;;;;1.40;0.80;;;;;;;20.51;72.65;97151.75;5055194;28;20213;-74
2023/08/03 10:23:39;;;;;;;1.03;0.70;;;;;;;20.47;72.74;97153.47;5055023;28;20208;-74
2023/08/03 10:26:07;;;;;;;2.73;0.80;;;;;;;20.57;75.40;97139.72;5054944;28;20201;-74
2023/08/03 10:28:39;;;;;;;1.80;0.97;;;;;;;20.75;73.36;97149.56;5054818;28;20810;-74
2023/08/03 10:31:19;;;;;;;1.37;0.80;;;;;;;20.79;71.63;97147.88;5054450;28;20703;-74
2023/08/03 10:33:48;;;;;;;2.67;0.80;;;;;;;20.79;70.40;97149.78;5054568;28;20723;-74
2023/08/03 10:36:30;;;;;;;1.73;0.73;;;;;;;20.67;71.03;97166.50;5054648;28;20647;-74
2023/08/03 10:39:02;;;;;;;1.07;0.90;;;;;;;20.54;72.58;97171.94;5054754;28;20603;-74
2023/08/03 10:41:37;;;;;;;2.57;0.90;;;;;;;20.44;72.01;97161.38;5054302;28;20645;-74
2023/08/03 10:44:06;;;;;;;1.63;0.73;;;;;;;20.52;72.02;97164.16;5054618;28;20196;-74
2023/08/03 10:46:35;;;;;;;2.37;0.60;;;;;;;20.46;73.47;97168.06;5054704;28;20247;-74
2023/08/03 10:49:20;;;;;;;1.07;0.67;;;;;;;20.40;74.83;97163.09;5053895;28;20225;-74
2023/08/03 10:51:51;;;;;;;2.33;0.90;;;;;;;20.41;72.26;97175.47;5054235;28;20211;-74
2023/08/03 10:54:19;;;;;;;1.30;0.80;;;;;;;20.39;71.83;97173.06;5054247;28;20216;-74
2023/08/03 10:57:16;;;;;;;2.50;1.20;;;;;;;20.55;72.48;97170.84;5053805;28;20220;-74
2023/08/03 10:59:48;;;;;;;1.10;0.70;;;;;;;20.46;71.78;97178.06;5053490;28;20229;-75
2023/08/03 11:02:15;;;;;;;1.67;0.77;;;;;;;20.56;72.52;97180.53;5053902;28;20560;-74
2023/08/03 11:04:42;;;;;;;1.63;0.70;;;;;;;20.69;72.23;97163.50;5054273;28;20216;-74
2023/08/03 11:07:13;;;;;;;1.23;0.70;;;;;;;20.69;71.99;97183.22;5055112;28;20227;-74
2023/08/03 11:09:39;;;;;;;1.37;0.80;;;;;;;20.76;71.23;97191.69;5054147;28;20225;-74
2023/08/03 11:12:07;;;;;;;2.33;0.83;;;;;;;20.80;70.37;97181.09;5054128;28;20205;-74
2023/08/03 11:14:35;;;;;;;1.10;0.80;;;;;;;21.00;72.03;97177.94;5054107;28;20282;-74
2023/08/03 11:17:01;;;;;;;1.10;0.80;;;;;;;21.14;73.91;97178.69;5054096;28;20201;-74
2023/08/03 11:19:32;;;;;;;1.63;0.87;;;;;;;21.14;71.13;97173.28;5053763;28;20228;-74
2023/08/03 11:22:01;;;;;;;0.70;0.70;;;;;;;21.17;69.51;97172.69;5053624;28;20225;-74
2023/08/03 11:24:31;;;;;;;2.37;0.80;;;;;;;21.21;70.30;97184.47;5053907;28;20236;-74
2023/08/03 11:26:58;;;;;;;1.50;0.80;;;;;;;21.21;70.04;97173.66;5053337;28;20433;-74
2023/08/03 11:29:25;;;;;;;2.50;0.80;;;;;;;21.21;69.20;97190.66;5053619;28;20255;-74